sensor_id;sensor_type;location;lat;lon;timestamp;temperature;humidity
2751;DHT22;1383;48.362;10.908;2024-01-16T00:02:05;-1.10;50.10
2751;DHT22;1383;48.362;10.908;2024-01-16T00:04:32;-1.10;50.00
2751;DHT22;1383;48.362;10.908;2024-01-16T00:07:01;-1.10;50.00
2751;DHT22;1383;48.362;10.908;2024-01-16T00:09:28;-1.10;50.20
2751;DHT22;1383;48.362;10.908;2024-01-16T00:11:55;-1.10;50.60
2751;DHT22;1383;48.362;10.908;2024-01-16T00:14:22;-1.10;49.90
2751;DHT22;1383;48.362;10.908;2024-01-16T00:16:49;-1.10;49.70
2751;DHT22;1383;48.362;10.908;2024-01-16T00:19:16;-1.10;49.70
2751;DHT22;1383;48.362;10.908;2024-01-16T00:21:44;-1.10;49.70
2751;DHT22;1383;48.362;10.908;2024-01-16T00:24:14;-1.10;49.60
2751;DHT22;1383;48.362;10.908;2024-01-16T00:26:41;-1.10;49.20
2751;DHT22;1383;48.362;10.908;2024-01-16T00:29:09;-1.20;49.20
2751;DHT22;1383;48.362;10.908;2024-01-16T00:31:48;-1.20;49.00
2751;DHT22;1383;48.362;10.908;2024-01-16T00:34:16;-1.30;49.40
2751;DHT22;1383;48.362;10.908;2024-01-16T00:36:42;-1.20;49.40
2751;DHT22;1383;48.362;10.908;2024-01-16T00:39:23;-1.30;49.30
2751;DHT22;1383;48.362;10.908;2024-01-16T00:41:50;-1.30;49.40
2751;DHT22;1383;48.362;10.908;2024-01-16T00:44:17;-1.30;49.10
2751;DHT22;1383;48.362;10.908;2024-01-16T00:46:44;-1.30;49.30
2751;DHT22;1383;48.362;10.908;2024-01-16T00:49:10;-1.30;49.60
2751;DHT22;1383;48.362;10.908;2024-01-16T00:51:37;-1.30;49.70
2751;DHT22;1383;48.362;10.908;2024-01-16T00:54:04;-1.30;49.60
2751;DHT22;1383;48.362;10.908;2024-01-16T00:56:35;-1.30;49.50
2751;DHT22;1383;48.362;10.908;2024-01-16T00:59:02;-1.30;49.10
2751;DHT22;1383;48.362;10.908;2024-01-16T01:01:29;-1.30;49.60
2751;DHT22;1383;48.362;10.908;2024-01-16T01:03:56;-1.30;49.30
2751;DHT22;1383;48.362;10.908;2024-01-16T01:06:23;-1.30;49.40
2751;DHT22;1383;48.362;10.908;2024-01-16T01:08:50;-1.30;48.80
2751;DHT22;1383;48.362;10.908;2024-01-16T01:11:17;-1.30;49.00
2751;DHT22;1383;48.362;10.908;2024-01-16T01:13:44;-1.40;49.00
2751;DHT22;1383;48.362;10.908;2024-01-16T01:16:11;-1.40;49.30
2751;DHT22;1383;48.362;10.908;2024-01-16T01:18:38;-1.40;49.80
2751;DHT22;1383;48.362;10.908;2024-01-16T01:21:05;-1.40;49.20
2751;DHT22;1383;48.362;10.908;2024-01-16T01:23:32;-1.40;49.40
2751;DHT22;1383;48.362;10.908;2024-01-16T01:26:00;-1.40;49.20
2751;DHT22;1383;48.362;10.908;2024-01-16T01:28:26;-1.40;49.00
2751;DHT22;1383;48.362;10.908;2024-01-16T01:30:53;-1.40;48.60
2751;DHT22;1383;48.362;10.908;2024-01-16T01:33:20;-1.50;49.00
2751;DHT22;1383;48.362;10.908;2024-01-16T01:35:47;-1.40;49.30
2751;DHT22;1383;48.362;10.908;2024-01-16T01:38:14;-1.50;49.20
2751;DHT22;1383;48.362;10.908;2024-01-16T01:40:41;-1.50;49.30
2751;DHT22;1383;48.362;10.908;2024-01-16T01:43:24;-1.40;49.50
2751;DHT22;1383;48.362;10.908;2024-01-16T01:46:09;-1.50;49.40
2751;DHT22;1383;48.362;10.908;2024-01-16T01:48:41;-1.50;49.50
2751;DHT22;1383;48.362;10.908;2024-01-16T01:51:12;-1.50;49.50
2751;DHT22;1383;48.362;10.908;2024-01-16T01:53:42;-1.60;49.30
2751;DHT22;1383;48.362;10.908;2024-01-16T01:56:14;-1.60;49.50
2751;DHT22;1383;48.362;10.908;2024-01-16T01:58:54;-1.70;49.40
2751;DHT22;1383;48.362;10.908;2024-01-16T02:01:23;-1.70;49.00
2751;DHT22;1383;48.362;10.908;2024-01-16T02:03:52;-1.70;49.30
2751;DHT22;1383;48.362;10.908;2024-01-16T02:06:19;-1.70;49.70
2751;DHT22;1383;48.362;10.908;2024-01-16T02:08:46;-1.80;49.60
2751;DHT22;1383;48.362;10.908;2024-01-16T02:11:13;-1.80;49.70
2751;DHT22;1383;48.362;10.908;2024-01-16T02:13:41;-1.90;49.20
2751;DHT22;1383;48.362;10.908;2024-01-16T02:18:45;-2.10;48.50
2751;DHT22;1383;48.362;10.908;2024-01-16T02:21:15;-2.30;47.70
2751;DHT22;1383;48.362;10.908;2024-01-16T02:23:44;-2.40;47.70
2751;DHT22;1383;48.362;10.908;2024-01-16T02:26:11;-2.60;48.00
2751;DHT22;1383;48.362;10.908;2024-01-16T02:28:39;-2.70;48.60
2751;DHT22;1383;48.362;10.908;2024-01-16T02:31:07;-2.70;49.30
2751;DHT22;1383;48.362;10.908;2024-01-16T02:33:34;-2.70;49.50
2751;DHT22;1383;48.362;10.908;2024-01-16T02:36:01;-2.80;49.50
2751;DHT22;1383;48.362;10.908;2024-01-16T02:38:28;-2.80;49.80
2751;DHT22;1383;48.362;10.908;2024-01-16T02:40:55;-2.90;49.90
2751;DHT22;1383;48.362;10.908;2024-01-16T02:43:22;-2.90;49.60
2751;DHT22;1383;48.362;10.908;2024-01-16T02:45:50;-2.90;50.00
2751;DHT22;1383;48.362;10.908;2024-01-16T02:48:17;-3.00;49.90
2751;DHT22;1383;48.362;10.908;2024-01-16T02:50:43;-3.00;50.70
2751;DHT22;1383;48.362;10.908;2024-01-16T02:53:10;-3.00;50.80
2751;DHT22;1383;48.362;10.908;2024-01-16T02:55:37;-3.00;51.40
2751;DHT22;1383;48.362;10.908;2024-01-16T02:58:04;-3.00;51.20
2751;DHT22;1383;48.362;10.908;2024-01-16T03:00:31;-3.00;51.20
2751;DHT22;1383;48.362;10.908;2024-01-16T03:02:58;-3.00;51.00
2751;DHT22;1383;48.362;10.908;2024-01-16T03:05:25;-3.10;50.50
2751;DHT22;1383;48.362;10.908;2024-01-16T03:07:52;-3.10;50.70
2751;DHT22;1383;48.362;10.908;2024-01-16T03:10:18;-3.10;50.50
2751;DHT22;1383;48.362;10.908;2024-01-16T03:12:45;-3.20;50.20
2751;DHT22;1383;48.362;10.908;2024-01-16T03:15:12;-3.30;49.40
2751;DHT22;1383;48.362;10.908;2024-01-16T03:17:39;-3.30;49.40
2751;DHT22;1383;48.362;10.908;2024-01-16T03:20:06;-3.40;49.30
2751;DHT22;1383;48.362;10.908;2024-01-16T03:22:33;-3.60;49.20
2751;DHT22;1383;48.362;10.908;2024-01-16T03:25:00;-3.70;49.50
2751;DHT22;1383;48.362;10.908;2024-01-16T03:27:29;-3.70;49.60
2751;DHT22;1383;48.362;10.908;2024-01-16T03:29:56;-3.80;50.40
2751;DHT22;1383;48.362;10.908;2024-01-16T03:32:23;-3.80;50.40
2751;DHT22;1383;48.362;10.908;2024-01-16T03:34:50;-3.70;50.60
2751;DHT22;1383;48.362;10.908;2024-01-16T03:37:17;-3.70;50.70
2751;DHT22;1383;48.362;10.908;2024-01-16T03:39:44;-3.70;50.50
2751;DHT22;1383;48.362;10.908;2024-01-16T03:42:11;-3.70;50.60
2751;DHT22;1383;48.362;10.908;2024-01-16T03:44:42;-3.70;50.90
2751;DHT22;1383;48.362;10.908;2024-01-16T03:47:09;-3.70;50.90
2751;DHT22;1383;48.362;10.908;2024-01-16T03:49:36;-3.60;50.90
2751;DHT22;1383;48.362;10.908;2024-01-16T03:52:03;-3.60;51.30
2751;DHT22;1383;48.362;10.908;2024-01-16T03:54:29;-3.60;51.30
2751;DHT22;1383;48.362;10.908;2024-01-16T03:56:57;-3.70;51.50
2751;DHT22;1383;48.362;10.908;2024-01-16T03:59:24;-3.70;51.50
2751;DHT22;1383;48.362;10.908;2024-01-16T04:01:50;-3.70;51.30
2751;DHT22;1383;48.362;10.908;2024-01-16T04:04:17;-3.70;51.80
2751;DHT22;1383;48.362;10.908;2024-01-16T04:06:46;-3.70;52.00
2751;DHT22;1383;48.362;10.908;2024-01-16T04:09:13;-3.70;52.20
2751;DHT22;1383;48.362;10.908;2024-01-16T04:11:41;-3.70;52.40
2751;DHT22;1383;48.362;10.908;2024-01-16T04:14:08;-3.60;52.60
2751;DHT22;1383;48.362;10.908;2024-01-16T04:16:35;-3.60;52.70
2751;DHT22;1383;48.362;10.908;2024-01-16T04:19:02;-3.60;52.80
2751;DHT22;1383;48.362;10.908;2024-01-16T04:21:29;-3.50;52.60
2751;DHT22;1383;48.362;10.908;2024-01-16T04:23:55;-3.50;52.50
2751;DHT22;1383;48.362;10.908;2024-01-16T04:26:22;-3.50;52.40
2751;DHT22;1383;48.362;10.908;2024-01-16T04:28:51;-3.50;52.60
2751;DHT22;1383;48.362;10.908;2024-01-16T04:31:18;-3.50;52.40
2751;DHT22;1383;48.362;10.908;2024-01-16T04:33:46;-3.50;52.30
2751;DHT22;1383;48.362;10.908;2024-01-16T04:36:13;-3.40;52.30
2751;DHT22;1383;48.362;10.908;2024-01-16T04:38:39;-3.40;52.20
2751;DHT22;1383;48.362;10.908;2024-01-16T04:41:06;-3.40;52.10
2751;DHT22;1383;48.362;10.908;2024-01-16T04:43:33;-3.40;51.90
2751;DHT22;1383;48.362;10.908;2024-01-16T04:46:00;-3.50;52.00
2751;DHT22;1383;48.362;10.908;2024-01-16T04:48:29;-3.50;51.90
2751;DHT22;1383;48.362;10.908;2024-01-16T04:50:56;-3.50;52.10
2751;DHT22;1383;48.362;10.908;2024-01-16T04:53:23;-3.40;52.00
2751;DHT22;1383;48.362;10.908;2024-01-16T04:55:50;-3.50;51.90
2751;DHT22;1383;48.362;10.908;2024-01-16T04:58:17;-3.40;51.50
2751;DHT22;1383;48.362;10.908;2024-01-16T05:00:45;-3.40;51.40
2751;DHT22;1383;48.362;10.908;2024-01-16T05:03:13;-3.50;51.90
2751;DHT22;1383;48.362;10.908;2024-01-16T05:05:40;-3.40;51.80
2751;DHT22;1383;48.362;10.908;2024-01-16T05:08:07;-3.40;51.60
2751;DHT22;1383;48.362;10.908;2024-01-16T05:10:34;-3.40;51.60
2751;DHT22;1383;48.362;10.908;2024-01-16T05:13:01;-3.50;51.80
2751;DHT22;1383;48.362;10.908;2024-01-16T05:15:28;-3.50;52.10
2751;DHT22;1383;48.362;10.908;2024-01-16T05:17:55;-3.50;53.10
2751;DHT22;1383;48.362;10.908;2024-01-16T05:20:22;-3.40;52.30
2751;DHT22;1383;48.362;10.908;2024-01-16T05:22:49;-3.40;51.60
2751;DHT22;1383;48.362;10.908;2024-01-16T05:25:16;-3.60;51.40
2751;DHT22;1383;48.362;10.908;2024-01-16T05:27:46;-3.60;52.20
2751;DHT22;1383;48.362;10.908;2024-01-16T05:30:13;-3.60;52.50
2751;DHT22;1383;48.362;10.908;2024-01-16T05:32:40;-3.60;52.60
2751;DHT22;1383;48.362;10.908;2024-01-16T05:35:08;-3.60;52.80
2751;DHT22;1383;48.362;10.908;2024-01-16T05:37:36;-3.60;52.60
2751;DHT22;1383;48.362;10.908;2024-01-16T05:40:03;-3.60;52.40
2751;DHT22;1383;48.362;10.908;2024-01-16T05:42:31;-3.60;52.50
2751;DHT22;1383;48.362;10.908;2024-01-16T05:44:57;-3.50;53.00
2751;DHT22;1383;48.362;10.908;2024-01-16T05:47:24;-3.50;53.10
2751;DHT22;1383;48.362;10.908;2024-01-16T05:49:54;-3.50;53.00
2751;DHT22;1383;48.362;10.908;2024-01-16T05:52:22;-3.50;52.80
2751;DHT22;1383;48.362;10.908;2024-01-16T05:54:49;-3.50;52.90
2751;DHT22;1383;48.362;10.908;2024-01-16T05:57:16;-3.50;53.20
2751;DHT22;1383;48.362;10.908;2024-01-16T05:59:43;-3.40;53.30
2751;DHT22;1383;48.362;10.908;2024-01-16T06:02:10;-3.40;53.00
2751;DHT22;1383;48.362;10.908;2024-01-16T06:04:37;-3.40;53.70
2751;DHT22;1383;48.362;10.908;2024-01-16T06:07:04;-3.30;53.90
2751;DHT22;1383;48.362;10.908;2024-01-16T06:09:38;-3.40;53.00
2751;DHT22;1383;48.362;10.908;2024-01-16T06:12:07;-3.30;52.80
2751;DHT22;1383;48.362;10.908;2024-01-16T06:14:34;-3.30;52.60
2751;DHT22;1383;48.362;10.908;2024-01-16T06:17:01;-3.30;53.10
2751;DHT22;1383;48.362;10.908;2024-01-16T06:19:29;-3.20;53.40
2751;DHT22;1383;48.362;10.908;2024-01-16T06:21:56;-3.20;53.60
2751;DHT22;1383;48.362;10.908;2024-01-16T06:24:24;-3.20;53.00
2751;DHT22;1383;48.362;10.908;2024-01-16T06:26:51;-3.20;52.80
2751;DHT22;1383;48.362;10.908;2024-01-16T06:29:18;-3.20;53.10
2751;DHT22;1383;48.362;10.908;2024-01-16T06:31:57;-3.30;53.10
2751;DHT22;1383;48.362;10.908;2024-01-16T06:34:24;-3.40;53.40
2751;DHT22;1383;48.362;10.908;2024-01-16T06:36:51;-3.40;53.60
2751;DHT22;1383;48.362;10.908;2024-01-16T06:39:18;-3.50;53.80
2751;DHT22;1383;48.362;10.908;2024-01-16T06:41:45;-3.60;54.30
2751;DHT22;1383;48.362;10.908;2024-01-16T06:44:12;-3.60;54.60
2751;DHT22;1383;48.362;10.908;2024-01-16T06:46:39;-3.60;54.50
2751;DHT22;1383;48.362;10.908;2024-01-16T06:49:06;-3.70;54.60
2751;DHT22;1383;48.362;10.908;2024-01-16T06:51:33;-3.60;55.00
2751;DHT22;1383;48.362;10.908;2024-01-16T06:54:00;-3.70;54.90
2751;DHT22;1383;48.362;10.908;2024-01-16T06:56:27;-3.80;55.30
2751;DHT22;1383;48.362;10.908;2024-01-16T06:58:54;-3.80;55.70
2751;DHT22;1383;48.362;10.908;2024-01-16T07:01:21;-3.70;56.10
2751;DHT22;1383;48.362;10.908;2024-01-16T07:03:48;-3.60;56.00
2751;DHT22;1383;48.362;10.908;2024-01-16T07:06:15;-3.60;55.90
2751;DHT22;1383;48.362;10.908;2024-01-16T07:08:42;-3.60;55.60
2751;DHT22;1383;48.362;10.908;2024-01-16T07:11:09;-3.70;55.60
2751;DHT22;1383;48.362;10.908;2024-01-16T07:13:40;-3.60;55.40
2751;DHT22;1383;48.362;10.908;2024-01-16T07:16:10;-3.60;55.40
2751;DHT22;1383;48.362;10.908;2024-01-16T07:18:38;-3.60;54.90
2751;DHT22;1383;48.362;10.908;2024-01-16T07:21:17;-3.60;54.90
2751;DHT22;1383;48.362;10.908;2024-01-16T07:23:44;-3.50;54.60
2751;DHT22;1383;48.362;10.908;2024-01-16T07:26:11;-3.50;54.60
2751;DHT22;1383;48.362;10.908;2024-01-16T07:28:38;-3.40;55.10
2751;DHT22;1383;48.362;10.908;2024-01-16T07:31:05;-3.50;54.00
2751;DHT22;1383;48.362;10.908;2024-01-16T07:33:32;-3.30;54.10
2751;DHT22;1383;48.362;10.908;2024-01-16T07:35:59;-3.30;53.60
2751;DHT22;1383;48.362;10.908;2024-01-16T07:38:26;-3.30;53.40
2751;DHT22;1383;48.362;10.908;2024-01-16T07:40:53;-3.20;53.40
2751;DHT22;1383;48.362;10.908;2024-01-16T07:43:26;-3.20;53.50
2751;DHT22;1383;48.362;10.908;2024-01-16T07:45:52;-3.10;53.80
2751;DHT22;1383;48.362;10.908;2024-01-16T07:48:19;-3.00;53.40
2751;DHT22;1383;48.362;10.908;2024-01-16T07:50:46;-3.00;53.70
2751;DHT22;1383;48.362;10.908;2024-01-16T07:53:14;-2.90;52.40
2751;DHT22;1383;48.362;10.908;2024-01-16T07:55:42;-2.90;52.20
2751;DHT22;1383;48.362;10.908;2024-01-16T07:58:13;-2.80;52.00
2751;DHT22;1383;48.362;10.908;2024-01-16T08:00:40;-2.80;52.00
2751;DHT22;1383;48.362;10.908;2024-01-16T08:03:08;-2.70;52.00
2751;DHT22;1383;48.362;10.908;2024-01-16T08:05:38;-2.70;52.10
2751;DHT22;1383;48.362;10.908;2024-01-16T08:08:08;-2.60;51.70
2751;DHT22;1383;48.362;10.908;2024-01-16T08:10:36;-2.60;51.40
2751;DHT22;1383;48.362;10.908;2024-01-16T08:13:03;-2.50;51.10
2751;DHT22;1383;48.362;10.908;2024-01-16T08:15:30;-2.40;50.80
2751;DHT22;1383;48.362;10.908;2024-01-16T08:17:57;-2.40;50.10
2751;DHT22;1383;48.362;10.908;2024-01-16T08:20:24;-2.40;49.90
2751;DHT22;1383;48.362;10.908;2024-01-16T08:22:52;-2.30;50.40
2751;DHT22;1383;48.362;10.908;2024-01-16T08:25:20;-2.30;50.10
2751;DHT22;1383;48.362;10.908;2024-01-16T08:27:46;-2.20;50.10
2751;DHT22;1383;48.362;10.908;2024-01-16T08:30:13;-2.30;49.50
2751;DHT22;1383;48.362;10.908;2024-01-16T08:32:40;-2.30;49.30
2751;DHT22;1383;48.362;10.908;2024-01-16T08:35:09;-2.20;49.20
2751;DHT22;1383;48.362;10.908;2024-01-16T08:37:36;-2.30;48.90
2751;DHT22;1383;48.362;10.908;2024-01-16T08:40:03;-2.30;49.30
2751;DHT22;1383;48.362;10.908;2024-01-16T08:42:31;-2.20;49.60
2751;DHT22;1383;48.362;10.908;2024-01-16T08:44:58;-2.20;49.90
2751;DHT22;1383;48.362;10.908;2024-01-16T08:47:25;-2.00;49.10
2751;DHT22;1383;48.362;10.908;2024-01-16T08:49:52;-1.90;49.20
2751;DHT22;1383;48.362;10.908;2024-01-16T08:52:19;-1.80;48.40
2751;DHT22;1383;48.362;10.908;2024-01-16T08:54:46;-1.80;47.70
2751;DHT22;1383;48.362;10.908;2024-01-16T08:57:14;-1.90;47.50
2751;DHT22;1383;48.362;10.908;2024-01-16T08:59:43;-2.00;48.40
2751;DHT22;1383;48.362;10.908;2024-01-16T09:02:10;-2.10;48.50
2751;DHT22;1383;48.362;10.908;2024-01-16T09:04:38;-1.90;49.10
2751;DHT22;1383;48.362;10.908;2024-01-16T09:07:05;-1.80;48.30
2751;DHT22;1383;48.362;10.908;2024-01-16T09:09:33;-1.70;48.10
2751;DHT22;1383;48.362;10.908;2024-01-16T09:12:00;-1.50;47.80
2751;DHT22;1383;48.362;10.908;2024-01-16T09:14:27;-1.30;47.00
2751;DHT22;1383;48.362;10.908;2024-01-16T09:16:54;-1.10;46.00
2751;DHT22;1383;48.362;10.908;2024-01-16T09:19:21;-1.10;46.10
2751;DHT22;1383;48.362;10.908;2024-01-16T09:21:48;-0.90;46.30
2751;DHT22;1383;48.362;10.908;2024-01-16T09:24:15;-0.70;45.80
2751;DHT22;1383;48.362;10.908;2024-01-16T09:26:42;-0.70;45.70
2751;DHT22;1383;48.362;10.908;2024-01-16T09:29:10;-0.80;45.80
2751;DHT22;1383;48.362;10.908;2024-01-16T09:31:37;-0.70;45.90
2751;DHT22;1383;48.362;10.908;2024-01-16T09:34:04;-0.50;45.70
2751;DHT22;1383;48.362;10.908;2024-01-16T09:36:36;-0.40;45.30
2751;DHT22;1383;48.362;10.908;2024-01-16T09:39:07;-0.40;44.40
2751;DHT22;1383;48.362;10.908;2024-01-16T09:41:45;-0.40;45.40
2751;DHT22;1383;48.362;10.908;2024-01-16T09:44:12;-0.30;45.10
2751;DHT22;1383;48.362;10.908;2024-01-16T09:46:40;-0.30;43.40
2751;DHT22;1383;48.362;10.908;2024-01-16T09:49:10;-0.20;43.40
2751;DHT22;1383;48.362;10.908;2024-01-16T09:51:38;-0.10;44.00
2751;DHT22;1383;48.362;10.908;2024-01-16T09:54:05;0.00;44.50
2751;DHT22;1383;48.362;10.908;2024-01-16T09:56:41;0.10;43.50
2751;DHT22;1383;48.362;10.908;2024-01-16T09:59:09;0.20;42.50
2751;DHT22;1383;48.362;10.908;2024-01-16T10:01:38;0.30;42.70
2751;DHT22;1383;48.362;10.908;2024-01-16T10:04:05;0.30;41.20
2751;DHT22;1383;48.362;10.908;2024-01-16T10:06:33;0.10;40.90
2751;DHT22;1383;48.362;10.908;2024-01-16T10:09:01;0.10;41.20
2751;DHT22;1383;48.362;10.908;2024-01-16T10:11:29;0.00;41.70
2751;DHT22;1383;48.362;10.908;2024-01-16T10:13:58;-0.10;42.00
2751;DHT22;1383;48.362;10.908;2024-01-16T10:16:57;-0.20;41.60
2751;DHT22;1383;48.362;10.908;2024-01-16T10:19:27;-0.30;41.90
2751;DHT22;1383;48.362;10.908;2024-01-16T10:22:11;-0.20;43.10
2751;DHT22;1383;48.362;10.908;2024-01-16T10:24:40;-0.20;41.50
2751;DHT22;1383;48.362;10.908;2024-01-16T10:27:15;-0.10;43.20
2751;DHT22;1383;48.362;10.908;2024-01-16T10:30:04;0.00;42.00
2751;DHT22;1383;48.362;10.908;2024-01-16T10:32:37;0.00;42.00
2751;DHT22;1383;48.362;10.908;2024-01-16T10:35:12;0.10;42.00
2751;DHT22;1383;48.362;10.908;2024-01-16T10:37:47;0.20;42.30
2751;DHT22;1383;48.362;10.908;2024-01-16T10:40:16;0.30;41.40
2751;DHT22;1383;48.362;10.908;2024-01-16T10:42:44;0.40;41.70
2751;DHT22;1383;48.362;10.908;2024-01-16T10:45:19;0.50;41.30
2751;DHT22;1383;48.362;10.908;2024-01-16T10:47:46;0.60;40.70
2751;DHT22;1383;48.362;10.908;2024-01-16T10:50:13;0.70;40.80
2751;DHT22;1383;48.362;10.908;2024-01-16T10:52:48;0.80;41.30
2751;DHT22;1383;48.362;10.908;2024-01-16T10:55:21;0.80;39.90
2751;DHT22;1383;48.362;10.908;2024-01-16T10:57:49;0.80;39.80
2751;DHT22;1383;48.362;10.908;2024-01-16T11:00:23;0.80;40.20
2751;DHT22;1383;48.362;10.908;2024-01-16T11:03:05;0.90;39.70
2751;DHT22;1383;48.362;10.908;2024-01-16T11:12:06;1.00;39.90
2751;DHT22;1383;48.362;10.908;2024-01-16T11:14:45;0.90;38.50
2751;DHT22;1383;48.362;10.908;2024-01-16T11:17:48;0.90;39.40
2751;DHT22;1383;48.362;10.908;2024-01-16T11:20:18;0.80;39.40
2751;DHT22;1383;48.362;10.908;2024-01-16T11:23:29;0.90;39.70
2751;DHT22;1383;48.362;10.908;2024-01-16T11:26:33;1.00;40.50
2751;DHT22;1383;48.362;10.908;2024-01-16T11:32:40;1.30;39.90
2751;DHT22;1383;48.362;10.908;2024-01-16T11:35:35;1.30;39.40
2751;DHT22;1383;48.362;10.908;2024-01-16T11:39:02;1.40;39.70
2751;DHT22;1383;48.362;10.908;2024-01-16T11:42:02;1.50;39.50
2751;DHT22;1383;48.362;10.908;2024-01-16T11:51:46;1.40;38.40
2751;DHT22;1383;48.362;10.908;2024-01-16T12:00:58;1.50;38.30
2751;DHT22;1383;48.362;10.908;2024-01-16T12:14:53;1.60;36.80
2751;DHT22;1383;48.362;10.908;2024-01-16T12:21:53;1.70;37.50
2751;DHT22;1383;48.362;10.908;2024-01-16T12:32:33;2.00;37.80
2751;DHT22;1383;48.362;10.908;2024-01-16T12:50:26;2.20;36.40
2751;DHT22;1383;48.362;10.908;2024-01-16T12:53:32;2.20;36.90
2751;DHT22;1383;48.362;10.908;2024-01-16T12:56:33;2.20;36.70
2751;DHT22;1383;48.362;10.908;2024-01-16T12:59:18;2.30;36.40
2751;DHT22;1383;48.362;10.908;2024-01-16T13:02:01;2.30;37.10
2751;DHT22;1383;48.362;10.908;2024-01-16T13:04:35;2.20;36.00
2751;DHT22;1383;48.362;10.908;2024-01-16T13:07:05;2.20;36.40
2751;DHT22;1383;48.362;10.908;2024-01-16T13:11:19;2.10;35.70
2751;DHT22;1383;48.362;10.908;2024-01-16T13:14:21;2.10;36.40
2751;DHT22;1383;48.362;10.908;2024-01-16T13:17:00;2.00;37.00
2751;DHT22;1383;48.362;10.908;2024-01-16T13:20:01;2.20;36.00
2751;DHT22;1383;48.362;10.908;2024-01-16T13:22:38;2.20;35.90
2751;DHT22;1383;48.362;10.908;2024-01-16T13:25:13;2.20;35.90
2751;DHT22;1383;48.362;10.908;2024-01-16T13:28:08;2.30;35.60
2751;DHT22;1383;48.362;10.908;2024-01-16T13:30:50;2.40;35.60
2751;DHT22;1383;48.362;10.908;2024-01-16T13:37:33;2.20;34.60
2751;DHT22;1383;48.362;10.908;2024-01-16T13:40:46;2.30;33.90
2751;DHT22;1383;48.362;10.908;2024-01-16T13:43:26;2.30;33.90
2751;DHT22;1383;48.362;10.908;2024-01-16T13:45:55;2.30;34.20
2751;DHT22;1383;48.362;10.908;2024-01-16T13:52:17;2.40;33.20
2751;DHT22;1383;48.362;10.908;2024-01-16T13:54:44;2.30;33.40
2751;DHT22;1383;48.362;10.908;2024-01-16T13:57:17;2.10;35.10
2751;DHT22;1383;48.362;10.908;2024-01-16T14:05:14;1.70;35.40
2751;DHT22;1383;48.362;10.908;2024-01-16T14:08:32;1.70;36.00
2751;DHT22;1383;48.362;10.908;2024-01-16T14:15:35;1.40;36.60
2751;DHT22;1383;48.362;10.908;2024-01-16T14:19:06;1.20;37.80
2751;DHT22;1383;48.362;10.908;2024-01-16T14:21:33;1.10;36.80
2751;DHT22;1383;48.362;10.908;2024-01-16T14:24:00;1.00;37.50
2751;DHT22;1383;48.362;10.908;2024-01-16T14:26:27;1.00;37.80
2751;DHT22;1383;48.362;10.908;2024-01-16T14:28:53;1.00;37.70
2751;DHT22;1383;48.362;10.908;2024-01-16T14:31:20;1.30;38.10
2751;DHT22;1383;48.362;10.908;2024-01-16T14:33:47;1.00;37.40
2751;DHT22;1383;48.362;10.908;2024-01-16T14:36:15;1.10;38.20
2751;DHT22;1383;48.362;10.908;2024-01-16T14:38:42;1.10;38.60
2751;DHT22;1383;48.362;10.908;2024-01-16T14:41:09;1.00;39.00
2751;DHT22;1383;48.362;10.908;2024-01-16T14:43:41;0.90;38.50
2751;DHT22;1383;48.362;10.908;2024-01-16T14:46:08;0.90;39.30
2751;DHT22;1383;48.362;10.908;2024-01-16T14:48:38;1.00;39.10
2751;DHT22;1383;48.362;10.908;2024-01-16T14:51:10;1.00;39.20
2751;DHT22;1383;48.362;10.908;2024-01-16T14:53:37;0.90;39.20
2751;DHT22;1383;48.362;10.908;2024-01-16T14:56:04;0.90;38.20
2751;DHT22;1383;48.362;10.908;2024-01-16T14:58:31;0.90;38.10
2751;DHT22;1383;48.362;10.908;2024-01-16T15:00:58;0.90;37.60
2751;DHT22;1383;48.362;10.908;2024-01-16T15:03:25;0.80;36.90
2751;DHT22;1383;48.362;10.908;2024-01-16T15:05:52;0.80;36.80
2751;DHT22;1383;48.362;10.908;2024-01-16T15:08:21;0.90;36.90
2751;DHT22;1383;48.362;10.908;2024-01-16T15:10:48;0.80;36.00
2751;DHT22;1383;48.362;10.908;2024-01-16T15:13:15;0.80;35.70
2751;DHT22;1383;48.362;10.908;2024-01-16T15:15:42;0.80;36.40
2751;DHT22;1383;48.362;10.908;2024-01-16T15:18:10;0.80;36.50
2751;DHT22;1383;48.362;10.908;2024-01-16T15:20:36;0.80;35.80
2751;DHT22;1383;48.362;10.908;2024-01-16T15:23:03;0.70;36.00
2751;DHT22;1383;48.362;10.908;2024-01-16T15:25:32;0.70;36.20
2751;DHT22;1383;48.362;10.908;2024-01-16T15:27:58;0.70;36.40
2751;DHT22;1383;48.362;10.908;2024-01-16T15:30:25;0.70;36.30
2751;DHT22;1383;48.362;10.908;2024-01-16T15:32:58;0.80;36.80
2751;DHT22;1383;48.362;10.908;2024-01-16T15:35:25;0.70;35.90
2751;DHT22;1383;48.362;10.908;2024-01-16T15:37:52;0.70;36.70
2751;DHT22;1383;48.362;10.908;2024-01-16T15:40:21;0.60;37.30
2751;DHT22;1383;48.362;10.908;2024-01-16T15:42:49;0.60;36.90
2751;DHT22;1383;48.362;10.908;2024-01-16T15:45:16;0.40;37.00
2751;DHT22;1383;48.362;10.908;2024-01-16T15:47:43;0.40;37.70
2751;DHT22;1383;48.362;10.908;2024-01-16T15:50:10;0.30;37.10
2751;DHT22;1383;48.362;10.908;2024-01-16T15:52:37;0.30;37.80
2751;DHT22;1383;48.362;10.908;2024-01-16T15:55:04;0.30;37.60
2751;DHT22;1383;48.362;10.908;2024-01-16T15:57:31;0.30;37.70
2751;DHT22;1383;48.362;10.908;2024-01-16T15:59:58;0.20;37.60
2751;DHT22;1383;48.362;10.908;2024-01-16T16:02:25;0.30;38.20
2751;DHT22;1383;48.362;10.908;2024-01-16T16:04:52;0.20;38.40
2751;DHT22;1383;48.362;10.908;2024-01-16T16:07:20;0.20;38.80
2751;DHT22;1383;48.362;10.908;2024-01-16T16:09:51;0.30;38.80
2751;DHT22;1383;48.362;10.908;2024-01-16T16:12:19;0.20;38.80
2751;DHT22;1383;48.362;10.908;2024-01-16T16:14:46;0.10;39.00
2751;DHT22;1383;48.362;10.908;2024-01-16T16:17:12;0.20;38.90
2751;DHT22;1383;48.362;10.908;2024-01-16T16:19:40;0.20;39.30
2751;DHT22;1383;48.362;10.908;2024-01-16T16:22:08;0.20;39.10
2751;DHT22;1383;48.362;10.908;2024-01-16T16:24:35;0.10;39.70
2751;DHT22;1383;48.362;10.908;2024-01-16T16:27:02;0.10;39.90
2751;DHT22;1383;48.362;10.908;2024-01-16T16:29:31;0.10;40.30
2751;DHT22;1383;48.362;10.908;2024-01-16T16:31:58;0.00;40.50
2751;DHT22;1383;48.362;10.908;2024-01-16T16:34:25;0.00;40.80
2751;DHT22;1383;48.362;10.908;2024-01-16T16:36:52;0.00;41.40
2751;DHT22;1383;48.362;10.908;2024-01-16T16:39:19;-0.10;41.80
2751;DHT22;1383;48.362;10.908;2024-01-16T16:41:49;-0.10;41.90
2751;DHT22;1383;48.362;10.908;2024-01-16T16:44:17;-0.10;42.30
2751;DHT22;1383;48.362;10.908;2024-01-16T16:46:44;-0.20;42.60
2751;DHT22;1383;48.362;10.908;2024-01-16T16:49:10;-0.30;43.20
2751;DHT22;1383;48.362;10.908;2024-01-16T16:51:37;-0.30;43.40
2751;DHT22;1383;48.362;10.908;2024-01-16T16:54:09;-0.40;43.90
2751;DHT22;1383;48.362;10.908;2024-01-16T16:56:36;-0.40;44.30
2751;DHT22;1383;48.362;10.908;2024-01-16T16:59:05;-0.50;44.30
2751;DHT22;1383;48.362;10.908;2024-01-16T17:01:33;-0.50;44.30
2751;DHT22;1383;48.362;10.908;2024-01-16T17:04:05;-0.50;44.70
2751;DHT22;1383;48.362;10.908;2024-01-16T17:06:33;-0.60;44.80
2751;DHT22;1383;48.362;10.908;2024-01-16T17:09:00;-0.60;45.10
2751;DHT22;1383;48.362;10.908;2024-01-16T17:11:27;-0.60;45.50
2751;DHT22;1383;48.362;10.908;2024-01-16T17:13:54;-0.70;45.90
2751;DHT22;1383;48.362;10.908;2024-01-16T17:16:21;-0.70;46.30
2751;DHT22;1383;48.362;10.908;2024-01-16T17:18:50;-0.90;46.40
2751;DHT22;1383;48.362;10.908;2024-01-16T17:21:17;-0.90;46.90
2751;DHT22;1383;48.362;10.908;2024-01-16T17:23:44;-0.90;47.30
2751;DHT22;1383;48.362;10.908;2024-01-16T17:26:11;-1.00;47.30
2751;DHT22;1383;48.362;10.908;2024-01-16T17:28:38;-1.00;47.40
2751;DHT22;1383;48.362;10.908;2024-01-16T17:31:05;-1.00;47.70
2751;DHT22;1383;48.362;10.908;2024-01-16T17:33:33;-1.10;47.70